createdAt,value
2023-03-06T00:00:05.003Z,1009.11
2023-03-06T00:00:34.527Z,1009.11
2023-03-06T00:01:05.682Z,1009.21
2023-03-06T00:01:37.337Z,1009.31
2023-03-06T00:02:08.667Z,1009.31
2023-03-06T00:02:39.753Z,1009.41
2023-03-06T00:03:09.838Z,1009.41
2023-03-06T00:03:41.032Z,1009.11
2023-03-06T00:04:11.547Z,1009.11
2023-03-06T00:04:42.769Z,1009.31
2023-03-06T00:05:14.033Z,1009.31
2023-03-06T00:05:44.943Z,1009.31
2023-03-06T00:06:15.797Z,1009.31
2023-03-06T00:06:48.993Z,1009.01
2023-03-06T00:07:49.567Z,1009.31
2023-03-06T00:08:20.293Z,1009.31
2023-03-06T00:08:50.890Z,1009.41
2023-03-06T00:09:22.010Z,1009.41
2023-03-06T00:09:52.981Z,1009.01
2023-03-06T00:10:23.903Z,1009.01
2023-03-06T00:10:54.882Z,1009.11
2023-03-06T00:11:25.815Z,1009.11
2023-03-06T00:11:56.612Z,1009.31
2023-03-06T00:12:28.688Z,1009.31
2023-03-06T00:12:59.599Z,1009.11
2023-03-06T00:13:35.798Z,1009.11
2023-03-06T00:14:01.092Z,1008.91
2023-03-06T00:14:31.815Z,1008.91
2023-03-06T00:15:05.257Z,1008.91
2023-03-06T00:15:33.837Z,1008.91
2023-03-06T00:16:04.626Z,1008.91
2023-03-06T00:16:35.814Z,1008.91
2023-03-06T00:17:08.764Z,1008.91
2023-03-06T00:17:38.574Z,1009.01
2023-03-06T00:18:09.444Z,1009.01
2023-03-06T00:18:40.050Z,1009.01
2023-03-06T00:19:11.093Z,1009.01
2023-03-06T00:19:41.934Z,1008.91
2023-03-06T00:20:13.219Z,1008.91
2023-03-06T00:20:44.131Z,1009.11
2023-03-06T00:21:14.737Z,1009.11
2023-03-06T00:21:45.603Z,1009.01
2023-03-06T00:22:16.823Z,1009.01
2023-03-06T00:22:48.637Z,1009.11
2023-03-06T00:23:19.510Z,1009.11
2023-03-06T00:23:50.181Z,1008.91
2023-03-06T00:24:20.941Z,1008.91
2023-03-06T00:24:51.897Z,1009.01
2023-03-06T00:25:23.164Z,1009.01
2023-03-06T00:25:53.677Z,1009.01
2023-03-06T00:26:24.954Z,1009.01
2023-03-06T00:26:55.606Z,1009.11
2023-03-06T00:27:27.104Z,1009.11
2023-03-06T00:27:59.106Z,1009.11
2023-03-06T00:28:29.631Z,1009.11
2023-03-06T00:29:00.300Z,1008.91
2023-03-06T00:32:11.760Z,1008.91
2023-03-06T00:32:38.233Z,1008.91
2023-03-06T00:33:09.853Z,1008.91
2023-03-06T00:33:40.885Z,1009.01
2023-03-06T00:34:10.412Z,1009.01
2023-03-06T00:34:41.072Z,1009.01
2023-03-06T00:35:14.765Z,1009.01
2023-03-06T00:35:43.883Z,1009.01
2023-03-06T00:36:14.069Z,1009.01
2023-03-06T00:36:45.042Z,1009.11
2023-03-06T00:37:15.972Z,1009.11
2023-03-06T00:37:46.967Z,1009.01
2023-03-06T00:38:19.751Z,1009.01
2023-03-06T00:38:49.666Z,1009.01
2023-03-06T00:39:20.356Z,1009.01
2023-03-06T00:39:51.359Z,1008.80
2023-03-06T00:40:21.918Z,1008.80
2023-03-06T00:40:53.265Z,1008.91
2023-03-06T00:41:23.775Z,1008.91
2023-03-06T00:41:55.019Z,1009.01
2023-03-06T00:42:25.991Z,1009.01
2023-03-06T00:42:56.977Z,1008.91
2023-03-06T00:43:28.595Z,1008.91
2023-03-06T00:43:59.771Z,1009.01
2023-03-06T00:44:47.462Z,1008.60
2023-03-06T00:45:01.577Z,1008.60
2023-03-06T00:45:32.062Z,1008.60
2023-03-06T00:46:03.351Z,1009.01
2023-03-06T00:46:33.882Z,1009.01
2023-03-06T00:47:04.799Z,1008.80
2023-03-06T00:47:35.898Z,1008.80
2023-03-06T00:48:10.627Z,1008.80
2023-03-06T00:48:38.065Z,1008.91
2023-03-06T00:49:09.678Z,1008.91
2023-03-06T00:49:40.152Z,1008.70
2023-03-06T00:50:12.763Z,1008.70
2023-03-06T00:50:41.864Z,1008.80
2023-03-06T00:51:14.111Z,1008.80
2023-03-06T00:51:44.625Z,1008.80
2023-03-06T00:52:15.080Z,1008.80
2023-03-06T00:52:46.151Z,1008.70
2023-03-06T00:53:17.003Z,1008.70
2023-03-06T00:53:48.274Z,1009.01
2023-03-06T00:54:19.572Z,1009.01
2023-03-06T00:54:50.496Z,1008.70
2023-03-06T00:55:21.254Z,1008.70
2023-03-06T00:55:53.490Z,1008.60
2023-03-06T00:56:23.343Z,1008.60
2023-03-06T00:56:53.905Z,1008.70
2023-03-06T00:57:25.009Z,1008.70
2023-03-06T00:57:55.982Z,1008.80
2023-03-06T00:58:26.980Z,1008.80
2023-03-06T00:58:58.156Z,1008.80
2023-03-06T00:59:29.478Z,1008.80
2023-03-06T01:00:01.156Z,1008.60
2023-03-06T01:00:31.582Z,1008.60
2023-03-06T01:01:02.359Z,1008.70
2023-03-06T01:01:33.349Z,1008.70
2023-03-06T01:02:04.560Z,1008.60
2023-03-06T01:02:52.147Z,1008.70
2023-03-06T01:03:06.675Z,1008.70
2023-03-06T01:03:37.125Z,1008.91
2023-03-06T01:04:09.124Z,1008.91
2023-03-06T01:04:39.849Z,1008.40
2023-03-06T01:05:12.211Z,1008.40
2023-03-06T01:05:54.227Z,1008.80
2023-03-06T01:06:12.403Z,1008.80
2023-03-06T01:06:44.308Z,1008.70
2023-03-06T01:07:32.272Z,1008.70
2023-03-06T01:07:45.502Z,1008.80
2023-03-06T01:08:17.130Z,1008.80
2023-03-06T01:08:48.424Z,1008.80
2023-03-06T01:09:20.639Z,1008.80
2023-03-06T01:09:51.826Z,1008.50
2023-03-06T01:10:53.739Z,1008.50
2023-03-06T01:11:42.144Z,1008.70
2023-03-06T01:11:54.219Z,1008.70
2023-03-06T01:12:25.162Z,1008.70
2023-03-06T01:13:08.690Z,1008.60
2023-03-06T01:13:37.004Z,1008.60
2023-03-06T01:13:59.679Z,1008.60
2023-03-06T01:41:50.723Z,1008.09
2023-03-06T01:42:32.021Z,1008.30
2023-03-06T01:43:10.595Z,1008.19
2023-03-06T01:43:27.546Z,1008.19
2023-03-06T01:44:00.874Z,1008.30
2023-03-06T01:44:30.363Z,1008.30
2023-03-06T01:44:57.734Z,1008.19
2023-03-06T01:45:29.280Z,1008.19
2023-03-06T01:46:00.492Z,1008.50
2023-03-06T01:46:31.333Z,1008.50
2023-03-06T01:47:02.106Z,1008.30
2023-03-06T01:47:32.720Z,1008.30
2023-03-06T01:48:03.485Z,1008.19
2023-03-06T01:48:35.341Z,1008.19
2023-03-06T01:49:05.285Z,1008.09
2023-03-06T01:49:36.476Z,1008.09
2023-03-06T01:50:07.719Z,1008.40
2023-03-06T01:50:40.384Z,1008.09
2023-03-06T01:51:15.587Z,1008.09
2023-03-06T01:51:41.870Z,1008.30
2023-03-06T01:52:12.884Z,1008.30
2023-03-06T01:52:43.565Z,1008.30
2023-03-06T01:53:14.049Z,1008.30
2023-03-06T01:53:46.031Z,1008.09
2023-03-06T01:54:15.469Z,1008.09
2023-03-06T01:54:46.502Z,1008.19
2023-03-06T01:55:20.096Z,1008.19
2023-03-06T01:55:49.022Z,1008.19
2023-03-06T01:56:20.299Z,1008.19
2023-03-06T01:57:23.623Z,1008.30
2023-03-06T01:57:53.456Z,1008.30
2023-03-06T01:58:23.888Z,1008.30
2023-03-06T01:58:55.044Z,1008.19
2023-03-06T01:59:25.474Z,1008.19
2023-03-06T01:59:56.296Z,1008.19
2023-03-06T02:03:56.417Z,1008.19
2023-03-06T02:04:04.986Z,1007.89
2023-03-06T02:04:35.179Z,1007.89
2023-03-06T02:05:08.036Z,1007.79
2023-03-06T02:06:23.210Z,1007.99
2023-03-06T02:06:41.869Z,1007.89
2023-03-06T02:07:16.796Z,1007.89
2023-03-06T02:07:44.168Z,1007.89
2023-03-06T02:08:14.771Z,1007.89
2023-03-06T02:08:43.874Z,1007.89
2023-03-06T02:09:29.550Z,1007.89
2023-03-06T02:09:46.130Z,1007.99
2023-03-06T02:10:19.714Z,1007.99
2023-03-06T02:10:48.039Z,1007.89
2023-03-06T02:11:38.488Z,1007.89
2023-03-06T02:11:49.566Z,1007.89
2023-03-06T02:12:21.432Z,1007.89
2023-03-06T02:12:53.354Z,1007.79
2023-03-06T02:13:23.033Z,1007.79
2023-03-06T02:13:54.064Z,1007.89
2023-03-06T02:14:25.672Z,1007.89
2023-03-06T02:14:55.733Z,1007.79
2023-03-06T02:15:27.905Z,1007.79
2023-03-06T02:15:57.782Z,1007.89
2023-03-06T02:16:29.128Z,1007.89
2023-03-06T02:17:00.610Z,1007.69
2023-03-06T02:17:31.669Z,1007.69
2023-03-06T02:18:02.470Z,1007.89
2023-03-06T02:18:33.172Z,1007.89
2023-03-06T02:19:04.189Z,1007.79
2023-03-06T02:19:34.733Z,1007.79
2023-03-06T02:20:06.183Z,1007.89
2023-03-06T02:20:36.549Z,1007.89
2023-03-06T02:21:07.898Z,1007.69
2023-03-06T02:21:38.634Z,1007.69
2023-03-06T02:22:09.941Z,1007.69
2023-03-06T02:22:42.174Z,1007.69
2023-03-06T02:23:12.619Z,1007.69
2023-03-06T02:23:44.266Z,1007.79
2023-03-06T02:24:14.080Z,1007.79
2023-03-06T02:24:45.170Z,1007.79
2023-03-06T02:25:15.882Z,1007.79
2023-03-06T02:25:47.081Z,1007.69
2023-03-06T02:26:20.188Z,1007.69
2023-03-06T02:26:48.907Z,1007.48
2023-03-06T02:27:51.638Z,1007.79
2023-03-06T02:28:22.738Z,1007.79
2023-03-06T02:28:54.073Z,1007.69
2023-03-06T02:29:24.789Z,1007.69
2023-03-06T02:29:55.820Z,1007.69
2023-03-06T02:30:29.174Z,1007.69
2023-03-06T02:30:59.407Z,1007.42
2023-03-06T02:31:27.667Z,1007.42
2023-03-06T02:31:58.600Z,1007.69
2023-03-06T02:32:30.621Z,1007.69
2023-03-06T02:33:02.330Z,1007.58
2023-03-06T02:33:32.544Z,1007.58
2023-03-06T02:34:05.503Z,1007.69
2023-03-06T02:34:34.877Z,1007.69
2023-03-06T02:36:08.344Z,1007.58
2023-03-06T02:36:39.321Z,1007.58
2023-03-06T02:37:09.730Z,1007.58
2023-03-06T02:37:41.853Z,1007.48
2023-03-06T02:38:11.568Z,1007.48
2023-03-06T02:39:38.310Z,1007.48
2023-03-06T02:39:44.624Z,1007.48
2023-03-06T02:40:18.139Z,1007.48
2023-03-06T02:40:47.142Z,1007.58
2023-03-06T02:41:17.537Z,1007.58
2023-03-06T02:41:47.917Z,1007.48
2023-03-06T02:42:19.152Z,1007.48
2023-03-06T02:53:55.219Z,1007.31
2023-03-06T02:54:33.585Z,1007.31
2023-03-06T02:56:52.623Z,1007.31
2023-03-06T02:57:16.130Z,1007.21
2023-03-06T02:57:46.743Z,1007.21
2023-03-06T02:58:19.874Z,1007.21
2023-03-06T02:58:53.230Z,1007.21
2023-03-06T02:59:32.418Z,1007.21
2023-03-06T03:02:38.945Z,1007.21
2023-03-06T03:19:01.761Z,1007.11
2023-03-06T03:19:25.175Z,1007.11
2023-03-06T03:19:42.449Z,1007.01
2023-03-06T03:20:12.376Z,1007.01
2023-03-06T03:20:43.779Z,1007.11
2023-03-06T03:21:33.868Z,1007.11
2023-03-06T03:22:55.279Z,1007.11
2023-03-06T03:23:09.574Z,1007.11
2023-03-06T03:23:50.380Z,1007.31
2023-03-06T03:24:49.676Z,1007.31
2023-03-06T03:25:13.548Z,1007.31
2023-03-06T03:25:45.122Z,1007.01
2023-03-06T03:26:14.201Z,1007.01
2023-03-06T03:26:46.346Z,1007.11
2023-03-06T03:27:15.847Z,1007.11
2023-03-06T03:27:47.865Z,1007.11
2023-03-06T03:28:18.975Z,1007.11
2023-03-06T03:28:49.619Z,1007.01
2023-03-06T03:29:23.156Z,1007.01
2023-03-06T03:29:51.629Z,1007.21
2023-03-06T03:30:29.698Z,1007.21
2023-03-06T03:30:52.757Z,1007.11
2023-03-06T03:31:24.242Z,1007.11
2023-03-06T03:31:54.631Z,1007.01
2023-03-06T03:32:26.093Z,1007.01
2023-03-06T03:32:57.134Z,1007.01
2023-03-06T03:33:35.472Z,1007.01
2023-03-06T03:33:59.655Z,1007.11
2023-03-06T03:34:32.234Z,1007.11
2023-03-06T03:35:01.692Z,1007.21
2023-03-06T03:35:32.641Z,1007.21
2023-03-06T03:36:03.164Z,1007.42
2023-03-06T03:36:52.373Z,1007.31
2023-03-06T03:37:05.467Z,1007.31
2023-03-06T03:39:04.273Z,1007.31
2023-03-06T03:39:10.791Z,1007.21
2023-03-06T03:39:41.127Z,1007.11
2023-03-06T03:40:12.088Z,1007.11
2023-03-06T03:41:02.155Z,1007.01
2023-03-06T03:41:13.378Z,1007.01
2023-03-06T03:41:43.556Z,1007.21
2023-03-06T03:42:14.889Z,1007.21
2023-03-06T03:42:46.200Z,1007.21
2023-03-06T03:43:20.644Z,1007.21
2023-03-06T03:43:48.577Z,1007.11
2023-03-06T03:44:20.514Z,1007.11
2023-03-06T03:44:51.313Z,1007.01
2023-03-06T03:45:28.362Z,1007.01
2023-03-06T03:45:51.960Z,1007.01
2023-03-06T03:46:23.535Z,1007.01
2023-03-06T03:46:53.768Z,1007.01
2023-03-06T03:47:24.987Z,1007.01
2023-03-06T03:47:55.767Z,1007.01
2023-03-06T03:48:42.856Z,1007.01
2023-03-06T03:48:58.460Z,1007.01
2023-03-06T03:49:29.755Z,1007.01
2023-03-06T03:50:01.297Z,1006.91
2023-03-06T03:50:31.091Z,1006.91
2023-03-06T03:51:02.327Z,1007.01
2023-03-06T03:51:33.921Z,1007.01
2023-03-06T03:52:04.057Z,1006.91
2023-03-06T03:52:34.831Z,1006.91
2023-03-06T03:53:05.991Z,1007.01
2023-03-06T03:53:36.855Z,1006.91
2023-03-06T03:54:09.306Z,1006.91
2023-03-06T03:54:39.966Z,1007.01
2023-03-06T03:55:11.317Z,1007.01
2023-03-06T03:55:42.742Z,1006.91
2023-03-06T03:56:12.868Z,1006.91
2023-03-06T03:56:59.582Z,1006.91
2023-03-06T03:57:14.109Z,1006.91
2023-03-06T03:57:46.723Z,1006.81
2023-03-06T03:58:16.029Z,1006.81
2023-03-06T03:59:05.659Z,1006.81
2023-03-06T03:59:18.006Z,1006.81
2023-03-06T03:59:49.768Z,1006.60
2023-03-06T04:00:22.188Z,1006.60
2023-03-06T04:00:51.058Z,1006.70
2023-03-06T04:01:22.308Z,1006.70
2023-03-06T04:01:53.387Z,1006.81
2023-03-06T04:02:24.567Z,1006.81
2023-03-06T04:02:55.093Z,1006.91
2023-03-06T04:03:26.947Z,1006.91
2023-03-06T04:03:56.787Z,1006.60
2023-03-06T04:04:27.818Z,1006.60
2023-03-06T04:04:59.472Z,1006.70
2023-03-06T04:05:30.523Z,1006.70
2023-03-06T04:06:02.335Z,1006.60
2023-03-06T04:06:32.660Z,1006.60
2023-03-06T04:07:03.138Z,1006.81
2023-03-06T04:07:33.759Z,1006.81
2023-03-06T04:08:04.653Z,1006.91
2023-03-06T04:08:35.939Z,1006.91
2023-03-06T04:11:20.390Z,1006.81
2023-03-06T04:12:24.243Z,1006.60
2023-03-06T04:12:54.895Z,1006.81
2023-03-06T04:13:15.346Z,1006.81
2023-03-06T04:13:46.747Z,1006.70
2023-03-06T04:14:16.978Z,1006.70
2023-03-06T04:14:47.797Z,1006.70
2023-03-06T04:15:19.272Z,1006.70
2023-03-06T04:15:52.104Z,1006.60
2023-03-06T04:16:21.705Z,1006.60
2023-03-06T04:16:53.614Z,1006.50
2023-03-06T04:17:23.388Z,1006.50
2023-03-06T04:17:54.400Z,1006.60
2023-03-06T04:18:25.711Z,1006.60
2023-03-06T04:19:00.313Z,1006.60
2023-03-06T04:19:27.010Z,1006.60
2023-03-06T04:19:58.763Z,1006.60
2023-03-06T04:20:32.396Z,1006.60
2023-03-06T04:21:00.789Z,1006.70
2023-03-06T04:21:31.817Z,1006.70
2023-03-06T04:22:19.292Z,1006.60
2023-03-06T04:22:33.194Z,1006.60
2023-03-06T04:23:03.878Z,1006.60
2023-03-06T04:23:34.923Z,1006.60
2023-03-06T04:24:06.587Z,1006.70
2023-03-06T04:24:36.883Z,1006.50
2023-03-06T04:25:08.154Z,1006.50
2023-03-06T04:25:38.864Z,1006.70
2023-03-06T04:26:19.219Z,1006.70
2023-03-06T04:26:42.439Z,1006.70
2023-03-06T04:27:43.651Z,1006.50
2023-03-06T04:28:15.227Z,1006.50
2023-03-06T04:28:45.451Z,1006.81
2023-03-06T04:29:16.232Z,1006.81
2023-03-06T04:29:47.270Z,1006.70
2023-03-06T04:30:21.519Z,1006.70
2023-03-06T04:30:49.154Z,1006.50
2023-03-06T04:31:20.612Z,1006.50
2023-03-06T04:31:52.615Z,1006.50
2023-03-06T04:32:23.062Z,1006.50
2023-03-06T04:32:53.904Z,1006.50
2023-03-06T04:33:55.556Z,1006.40
2023-03-06T04:34:26.358Z,1006.40
2023-03-06T04:34:57.221Z,1006.60
2023-03-06T04:35:28.184Z,1006.60
2023-03-06T04:36:25.831Z,1006.40
2023-03-06T04:36:30.868Z,1006.40
2023-03-06T04:37:02.913Z,1006.30
2023-03-06T04:37:34.646Z,1006.30
2023-03-06T04:38:03.595Z,1006.60
2023-03-06T04:39:05.453Z,1006.30
2023-03-06T04:39:36.657Z,1006.30
2023-03-06T04:40:07.684Z,1006.40
2023-03-06T04:40:37.901Z,1006.40
2023-03-06T04:41:10.492Z,1006.40
2023-03-06T04:41:40.599Z,1006.50
2023-03-06T04:42:11.832Z,1006.50
2023-03-06T04:42:43.079Z,1006.30
2023-03-06T04:43:13.332Z,1006.30
2023-03-06T04:43:44.488Z,1006.50
2023-03-06T04:44:15.064Z,1006.50
2023-03-06T04:44:46.140Z,1006.20
2023-03-06T04:45:17.460Z,1006.20
2023-03-06T04:45:48.151Z,1006.09
2023-03-06T04:46:19.620Z,1006.09
2023-03-06T04:46:50.288Z,1006.40
2023-03-06T04:47:23.197Z,1006.40
2023-03-06T04:47:53.313Z,1006.20
2023-03-06T04:48:23.674Z,1006.20
2023-03-06T04:49:12.175Z,1006.20
2023-03-06T04:49:25.265Z,1006.20
2023-03-06T04:49:56.832Z,1006.50
2023-03-06T04:50:27.100Z,1006.50
2023-03-06T04:50:58.690Z,1006.40
2023-03-06T04:51:29.243Z,1006.40
2023-03-06T04:52:01.039Z,1006.30
2023-03-06T04:52:32.156Z,1006.30
2023-03-06T04:53:03.228Z,1006.30
2023-03-06T04:53:33.459Z,1006.30
2023-03-06T04:54:04.566Z,1006.40
2023-03-06T04:54:35.144Z,1006.40
2023-03-06T04:55:06.410Z,1006.40
2023-03-06T04:55:38.251Z,1006.30
2023-03-06T04:56:07.976Z,1006.30
2023-03-06T04:56:39.001Z,1006.30
2023-03-06T04:57:10.638Z,1006.30
2023-03-06T04:57:58.730Z,1006.30
2023-03-06T04:58:13.186Z,1006.30
2023-03-06T04:58:43.776Z,1006.30
2023-03-06T04:59:14.982Z,1006.30
2023-03-06T04:59:45.191Z,1006.20
2023-03-06T05:00:16.980Z,1006.20
2023-03-06T05:00:47.576Z,1006.40
2023-03-06T05:01:29.467Z,1006.40
2023-03-06T05:01:49.163Z,1006.30
2023-03-06T05:02:20.166Z,1006.30
2023-03-06T05:02:50.979Z,1006.30
2023-03-06T05:03:21.849Z,1006.30
2023-03-06T05:03:53.043Z,1006.20
2023-03-06T05:04:24.086Z,1006.20
2023-03-06T05:04:55.223Z,1006.20
2023-03-06T05:05:26.335Z,1006.20
2023-03-06T05:06:14.414Z,1006.09
2023-03-06T05:06:28.128Z,1006.09
2023-03-06T05:06:59.266Z,1006.09
2023-03-06T05:07:30.363Z,1006.09
2023-03-06T05:08:01.888Z,1006.09
2023-03-06T05:08:32.317Z,1006.09
2023-03-06T05:09:03.410Z,1005.99
2023-03-06T05:09:33.902Z,1005.99
2023-03-06T05:10:05.575Z,1005.89
2023-03-06T05:10:36.359Z,1005.89
2023-03-06T05:11:08.153Z,1005.99
2023-03-06T05:11:38.593Z,1005.99
2023-03-06T05:12:09.564Z,1005.99
2023-03-06T05:12:40.484Z,1006.09
2023-03-06T05:13:11.344Z,1006.09
2023-03-06T05:13:42.193Z,1005.99
2023-03-06T05:14:13.163Z,1005.99
2023-03-06T05:14:44.605Z,1005.89
2023-03-06T05:15:15.518Z,1005.89
2023-03-06T05:15:46.644Z,1005.99
2023-03-06T05:16:18.780Z,1005.99
2023-03-06T05:16:49.572Z,1005.99
2023-03-06T05:17:19.742Z,1005.99
2023-03-06T05:17:50.069Z,1006.20
2023-03-06T05:18:21.156Z,1006.20
2023-03-06T05:18:52.949Z,1005.99
2023-03-06T05:19:23.212Z,1005.99
2023-03-06T05:19:54.225Z,1005.99
2023-03-06T05:20:25.412Z,1005.99
2023-03-06T05:20:56.982Z,1005.89
2023-03-06T05:21:28.238Z,1005.89
2023-03-06T05:21:58.893Z,1005.89
2023-03-06T05:22:29.781Z,1005.89
2023-03-06T05:23:01.428Z,1005.99
2023-03-06T05:23:31.829Z,1005.99
2023-03-06T05:24:02.436Z,1006.20
2023-03-06T05:24:32.993Z,1006.20
2023-03-06T05:25:04.788Z,1006.09
2023-03-06T05:26:07.779Z,1006.09
2023-03-06T05:26:38.228Z,1005.89
2023-03-06T05:27:09.234Z,1005.89
2023-03-06T05:27:39.728Z,1006.09
2023-03-06T05:28:10.924Z,1006.09
2023-03-06T05:28:41.399Z,1006.40
2023-03-06T05:29:12.304Z,1006.40
2023-03-06T05:29:43.280Z,1006.30
2023-03-06T05:30:15.152Z,1006.30
2023-03-06T05:30:45.202Z,1006.09
2023-03-06T05:31:16.877Z,1006.09
2023-03-06T05:31:48.349Z,1006.20
2023-03-06T05:32:24.901Z,1006.20
2023-03-06T05:32:50.146Z,1005.99
2023-03-06T05:33:21.094Z,1005.99
2023-03-06T05:33:52.491Z,1005.89
2023-03-06T05:34:23.154Z,1005.89
2023-03-06T05:34:53.625Z,1005.89
2023-03-06T05:35:24.525Z,1005.89
2023-03-06T05:35:55.426Z,1006.09
2023-03-06T05:36:26.515Z,1006.09
2023-03-06T05:37:29.457Z,1005.99
2023-03-06T05:37:59.693Z,1006.20
2023-03-06T05:38:30.395Z,1006.20
2023-03-06T05:39:01.325Z,1006.09
2023-03-06T05:39:50.676Z,1005.99
2023-03-06T05:40:03.894Z,1005.99
2023-03-06T05:40:34.434Z,1005.99
2023-03-06T05:41:05.988Z,1005.89
2023-03-06T05:41:36.965Z,1005.89
2023-03-06T05:42:08.652Z,1005.99
2023-03-06T05:42:39.056Z,1006.09
2023-03-06T05:43:09.873Z,1006.09
2023-03-06T05:43:40.988Z,1005.89
2023-03-06T05:44:11.881Z,1005.89
2023-03-06T05:44:42.544Z,1005.99
2023-03-06T05:45:13.484Z,1005.99
2023-03-06T05:45:44.320Z,1005.89
2023-03-06T05:46:15.520Z,1005.89
2023-03-06T05:46:47.625Z,1006.09
2023-03-06T05:47:18.249Z,1006.09
2023-03-06T05:47:49.236Z,1005.99
2023-03-06T05:48:20.362Z,1005.99
2023-03-06T05:48:51.467Z,1005.99
2023-03-06T05:49:21.558Z,1005.99
2023-03-06T05:49:52.102Z,1005.89
2023-03-06T05:50:24.145Z,1005.89
2023-03-06T05:50:54.417Z,1006.09
2023-03-06T05:51:25.274Z,1006.09
2023-03-06T05:52:28.218Z,1005.79
2023-03-06T05:52:59.123Z,1005.99
2023-03-06T05:54:00.901Z,1005.89
2023-03-06T05:54:31.757Z,1005.89
2023-03-06T05:55:03.127Z,1005.89
2023-03-06T05:55:33.501Z,1005.89
2023-03-06T05:56:04.710Z,1005.99
2023-03-06T05:56:35.448Z,1005.99
2023-03-06T05:57:06.977Z,1006.20
2023-03-06T05:57:38.762Z,1005.99
2023-03-06T05:58:09.312Z,1005.99
2023-03-06T05:58:40.046Z,1006.09
2023-03-06T05:59:11.130Z,1006.09
2023-03-06T05:59:41.593Z,1005.89
2023-03-06T06:00:14.063Z,1005.89
2023-03-06T06:00:43.552Z,1006.09
2023-03-06T06:01:14.391Z,1006.09
2023-03-06T06:01:45.380Z,1005.99
2023-03-06T06:02:48.192Z,1005.99
2023-03-06T06:03:27.246Z,1005.99
2023-03-06T06:04:20.836Z,1005.99
2023-03-06T06:05:52.259Z,1006.09
2023-03-06T06:06:24.563Z,1005.79
2023-03-06T06:06:55.147Z,1005.99
2023-03-06T06:07:26.614Z,1005.99
2023-03-06T06:07:59.759Z,1005.89
2023-03-06T06:08:30.278Z,1005.89
2023-03-06T06:09:00.428Z,1005.99
2023-03-06T06:09:30.834Z,1005.99
2023-03-06T06:10:03.817Z,1005.89
2023-03-06T06:10:32.654Z,1005.89
2023-03-06T06:11:03.456Z,1005.89
2023-03-06T06:11:34.641Z,1005.89
2023-03-06T06:12:05.455Z,1005.79
2023-03-06T06:12:36.945Z,1005.79
2023-03-06T06:13:08.082Z,1005.79
2023-03-06T06:13:39.276Z,1005.99
2023-03-06T06:14:09.914Z,1005.99
2023-03-06T06:14:41.230Z,1006.09
2023-03-06T06:15:16.413Z,1006.09
2023-03-06T06:15:43.159Z,1005.89
2023-03-06T06:16:13.469Z,1005.89
2023-03-06T06:16:44.370Z,1005.99
2023-03-06T06:17:15.811Z,1005.99
2023-03-06T06:17:48.539Z,1005.99
2023-03-06T06:18:18.447Z,1005.99
2023-03-06T06:18:49.595Z,1005.79
2023-03-06T06:19:20.286Z,1005.79
2023-03-06T06:19:51.372Z,1005.89
2023-03-06T06:20:22.280Z,1005.89
2023-03-06T06:20:55.856Z,1005.99
2023-03-06T06:21:41.260Z,1005.99
2023-03-06T06:21:55.327Z,1005.99
2023-03-06T06:22:25.423Z,1005.99
2023-03-06T06:22:57.106Z,1005.99
2023-03-06T06:23:32.617Z,1005.99
2023-03-06T06:23:59.500Z,1005.89
2023-03-06T06:24:35.487Z,1005.89
2023-03-06T06:25:01.322Z,1005.99
2023-03-06T06:25:32.066Z,1005.99
2023-03-06T06:26:02.968Z,1005.79
2023-03-06T06:26:33.425Z,1005.79
2023-03-06T06:27:04.347Z,1005.79
2023-03-06T06:27:52.625Z,1006.09
2023-03-06T06:28:07.493Z,1006.09
2023-03-06T06:28:39.048Z,1005.79
2023-03-06T06:29:10.239Z,1005.79
2023-03-06T06:29:41.273Z,1005.79
2023-03-06T06:30:12.860Z,1005.79
2023-03-06T06:30:41.985Z,1005.89
2023-03-06T06:31:12.686Z,1005.89
2023-03-06T06:31:43.486Z,1005.79
2023-03-06T06:32:14.534Z,1005.79
2023-03-06T06:32:45.602Z,1005.79
2023-03-06T06:33:18.223Z,1005.79
2023-03-06T06:33:48.515Z,1005.79
2023-03-06T06:34:19.249Z,1005.79
2023-03-06T06:34:50.020Z,1005.89
2023-03-06T06:35:20.798Z,1005.89
2023-03-06T06:35:52.123Z,1005.99
2023-03-06T06:36:22.732Z,1005.99
2023-03-06T06:36:53.880Z,1005.79
2023-03-06T06:37:24.759Z,1005.79
2023-03-06T06:37:56.543Z,1005.89
2023-03-06T06:38:32.411Z,1005.89
2023-03-06T06:38:58.703Z,1005.89
2023-03-06T06:39:29.236Z,1005.89
2023-03-06T06:40:00.514Z,1005.99
2023-03-06T06:40:30.660Z,1005.99
2023-03-06T06:41:33.066Z,1005.79
2023-03-06T06:42:26.546Z,1005.89
2023-03-06T06:42:52.139Z,1005.89
2023-03-06T06:43:05.541Z,1005.89
2023-03-06T06:43:36.970Z,1005.89
2023-03-06T06:44:08.800Z,1005.89
2023-03-06T06:44:39.525Z,1005.79
2023-03-06T06:45:10.869Z,1005.79
2023-03-06T06:45:40.697Z,1005.89
2023-03-06T06:46:47.174Z,1005.89
2023-03-06T06:47:23.487Z,1005.69
2023-03-06T06:47:44.660Z,1005.79
2023-03-06T06:48:17.727Z,1005.79
2023-03-06T06:48:47.164Z,1006.09
2023-03-06T06:49:18.041Z,1006.09
2023-03-06T06:49:49.548Z,1005.79
2023-03-06T06:50:20.042Z,1005.79
2023-03-06T06:50:51.269Z,1005.99
2023-03-06T06:51:21.742Z,1005.99
2023-03-06T06:51:52.744Z,1005.79
2023-03-06T06:52:23.780Z,1005.79
2023-03-06T06:52:54.521Z,1005.79
2023-03-06T06:53:27.424Z,1005.79
2023-03-06T06:53:56.792Z,1005.79
2023-03-06T06:54:29.010Z,1005.79
2023-03-06T06:54:59.417Z,1005.89
2023-03-06T06:55:30.673Z,1005.89
2023-03-06T06:56:04.256Z,1005.89
2023-03-06T06:56:31.919Z,1005.89
2023-03-06T06:57:03.325Z,1005.48
2023-03-06T06:57:33.324Z,1005.48
2023-03-06T06:58:04.769Z,1005.69
2023-03-06T06:58:36.161Z,1005.69
2023-03-06T06:59:16.539Z,1005.69
2023-03-06T06:59:37.874Z,1005.79
2023-03-06T07:00:49.684Z,1005.79
2023-03-06T07:01:11.605Z,1005.79
2023-03-06T07:01:41.714Z,1005.79
2023-03-06T07:02:12.976Z,1005.79
2023-03-06T07:02:44.754Z,1005.79
2023-03-06T07:03:31.772Z,1005.79
2023-03-06T07:03:45.468Z,1005.79
2023-03-06T07:04:16.853Z,1005.79
2023-03-06T07:05:02.617Z,1005.69
2023-03-06T07:05:20.972Z,1005.69
2023-03-06T07:05:50.089Z,1005.79
2023-03-06T07:10:04.249Z,1005.79
2023-03-06T07:10:44.652Z,1005.89
2023-03-06T07:11:00.551Z,1005.89
2023-03-06T07:11:31.481Z,1005.89
2023-03-06T07:12:01.759Z,1005.69
2023-03-06T07:12:51.489Z,1005.89
2023-03-06T07:13:04.357Z,1005.89
2023-03-06T07:13:34.712Z,1005.89
2023-03-06T07:14:05.945Z,1005.69
2023-03-06T07:14:36.920Z,1005.69
2023-03-06T07:15:09.761Z,1005.79
2023-03-06T07:15:40.527Z,1005.69
2023-03-06T07:16:11.595Z,1005.69
2023-03-06T07:16:41.183Z,1005.79
2023-03-06T07:17:12.583Z,1005.79
2023-03-06T07:17:42.876Z,1005.89
2023-03-06T07:18:14.392Z,1005.89
2023-03-06T07:18:45.231Z,1006.09
2023-03-06T07:19:15.695Z,1006.09
2023-03-06T07:19:46.646Z,1005.99
2023-03-06T07:20:19.710Z,1005.99
2023-03-06T07:21:05.846Z,1005.89
2023-03-06T07:21:20.086Z,1005.89
2023-03-06T07:21:51.446Z,1005.99
2023-03-06T07:22:21.880Z,1005.99
2023-03-06T07:22:53.004Z,1005.89
2023-03-06T07:23:23.699Z,1005.89
2023-03-06T07:23:54.618Z,1005.99
2023-03-06T07:24:25.509Z,1005.99
2023-03-06T07:24:57.927Z,1005.79
2023-03-06T07:25:31.322Z,1005.79
2023-03-06T07:26:00.725Z,1005.89
2023-03-06T07:26:32.791Z,1005.89
2023-03-06T07:27:01.205Z,1005.89
2023-03-06T07:27:32.180Z,1005.89
2023-03-06T07:28:03.199Z,1005.59
2023-03-06T07:28:46.192Z,1005.59
2023-03-06T07:29:04.866Z,1005.99
2023-03-06T07:29:35.776Z,1005.99
2023-03-06T07:30:07.443Z,1005.79
2023-03-06T07:30:38.705Z,1005.89
2023-03-06T07:31:10.315Z,1005.89
2023-03-06T07:31:41.242Z,1005.69
2023-03-06T07:32:12.069Z,1005.69
2023-03-06T07:32:42.118Z,1005.89
2023-03-06T07:33:13.663Z,1005.89
2023-03-06T07:33:44.665Z,1005.89
2023-03-06T07:34:14.740Z,1005.89
2023-03-06T07:34:45.438Z,1005.79
2023-03-06T07:35:20.394Z,1005.79
2023-03-06T07:35:47.826Z,1005.89
2023-03-06T07:36:19.880Z,1005.89
2023-03-06T07:36:50.944Z,1005.69
2023-03-06T07:37:21.296Z,1005.69
2023-03-06T07:37:52.332Z,1005.79
2023-03-06T07:38:23.064Z,1005.79
2023-03-06T07:38:53.692Z,1005.79